createdAt,value
2019-04-03T00:00:34.599Z,9.74
2019-04-03T00:03:04.716Z,9.76
2019-04-03T00:05:35.015Z,9.82
2019-04-03T00:08:06.000Z,9.83
2019-04-03T00:10:33.235Z,9.84
2019-04-03T00:13:01.684Z,9.90
2019-04-03T00:15:30.314Z,9.91
2019-04-03T00:17:58.832Z,9.88
2019-04-03T00:20:27.152Z,9.87
2019-04-03T00:22:55.641Z,9.85
2019-04-03T00:25:24.232Z,9.86
2019-04-03T00:27:52.986Z,9.89
2019-04-03T00:30:22.503Z,9.89
2019-04-03T00:32:53.152Z,9.90
2019-04-03T00:35:23.207Z,9.91
2019-04-03T00:37:52.939Z,9.92
2019-04-03T00:40:21.137Z,9.93
2019-04-03T00:42:49.607Z,9.90
2019-04-03T00:45:18.103Z,9.85
2019-04-03T00:47:46.664Z,9.80
2019-04-03T00:50:15.074Z,9.75
2019-04-03T00:52:43.540Z,9.71
2019-04-03T00:55:11.862Z,9.72
2019-04-03T00:57:40.031Z,9.69
2019-04-03T01:00:11.722Z,9.64
2019-04-03T01:02:40.032Z,9.62
2019-04-03T01:05:08.493Z,9.57
2019-04-03T01:07:36.960Z,9.53
2019-04-03T01:10:05.633Z,9.50
2019-04-03T01:12:33.946Z,9.49
2019-04-03T01:15:02.722Z,9.45
2019-04-03T01:17:30.924Z,9.43
2019-04-03T01:19:59.413Z,9.42
2019-04-03T01:22:27.948Z,9.39
2019-04-03T01:24:56.355Z,9.36
2019-04-03T01:27:24.856Z,9.36
2019-04-03T01:29:53.057Z,9.40
2019-04-03T01:32:21.311Z,9.41
2019-04-03T01:34:49.793Z,9.34
2019-04-03T01:37:19.290Z,9.30
2019-04-03T01:39:49.037Z,9.30
2019-04-03T01:42:17.789Z,9.26
2019-04-03T01:44:46.274Z,9.25
2019-04-03T01:47:14.484Z,9.20
2019-04-03T01:49:42.755Z,9.17
2019-04-03T01:52:11.180Z,9.13
2019-04-03T01:54:39.664Z,9.13
2019-04-03T01:57:08.166Z,9.09
2019-04-03T01:59:37.571Z,9.02
2019-04-03T02:02:08.191Z,9.00
2019-04-03T02:04:36.219Z,8.94
2019-04-03T02:07:04.631Z,8.92
2019-04-03T02:09:33.271Z,8.88
2019-04-03T02:12:01.599Z,8.82
2019-04-03T02:14:29.872Z,8.82
2019-04-03T02:16:58.047Z,8.85
2019-04-03T02:19:26.648Z,8.87
2019-04-03T02:21:55.025Z,8.91
2019-04-03T02:24:23.497Z,8.98
2019-04-03T02:26:51.968Z,9.01
2019-04-03T02:29:20.463Z,9.03
2019-04-03T02:31:51.718Z,9.03
2019-04-03T02:34:19.000Z,9.07
2019-04-03T02:36:47.431Z,9.08
2019-04-03T02:39:16.131Z,9.09
2019-04-03T02:41:44.395Z,9.08
2019-04-03T02:44:12.878Z,9.05
2019-04-03T02:46:41.368Z,9.04
2019-04-03T02:49:10.964Z,9.00
2019-04-03T02:51:39.835Z,8.93
2019-04-03T02:54:11.306Z,8.86
2019-04-03T02:56:39.911Z,8.77
2019-04-03T02:59:08.110Z,8.70
2019-04-03T03:01:39.577Z,8.64
2019-04-03T03:04:07.629Z,8.60
2019-04-03T03:06:35.863Z,8.53
2019-04-03T03:09:05.329Z,8.53
2019-04-03T03:11:33.473Z,8.50
2019-04-03T03:14:01.833Z,8.50
2019-04-03T03:16:30.040Z,8.46
2019-04-03T03:19:00.867Z,8.43
2019-04-03T03:21:28.516Z,8.41
2019-04-03T03:23:57.328Z,8.36
2019-04-03T03:26:26.831Z,8.32
2019-04-03T03:28:55.265Z,8.29
2019-04-03T03:31:56.387Z,8.35
2019-04-03T03:34:00.548Z,8.35
2019-04-03T03:36:26.173Z,8.34
2019-04-03T03:38:54.175Z,8.31
2019-04-03T03:41:24.394Z,8.23
2019-04-03T03:43:53.229Z,8.14
2019-04-03T03:46:26.402Z,8.06
2019-04-03T03:48:51.990Z,8.02
2019-04-03T03:51:20.457Z,8.01
2019-04-03T03:53:48.945Z,7.99
2019-04-03T03:56:18.405Z,7.99
2019-04-03T03:58:48.834Z,7.99
2019-04-03T04:01:18.142Z,7.98
2019-04-03T04:03:46.879Z,7.95
2019-04-03T04:06:15.298Z,7.94
2019-04-03T04:08:45.214Z,7.93
2019-04-03T04:11:13.925Z,7.92
2019-04-03T04:13:42.824Z,7.96
2019-04-03T04:16:11.290Z,7.93
2019-04-03T04:18:40.436Z,7.93
2019-04-03T04:21:10.626Z,7.93
2019-04-03T04:23:38.849Z,7.93
2019-04-03T04:26:07.244Z,7.94
2019-04-03T04:28:39.526Z,7.92
2019-04-03T04:31:06.366Z,7.91
2019-04-03T04:33:34.742Z,7.89
2019-04-03T04:36:03.211Z,7.90
2019-04-03T04:38:31.924Z,7.87
2019-04-03T04:41:01.853Z,7.85
2019-04-03T04:43:30.219Z,7.81
2019-04-03T04:45:58.763Z,7.80
2019-04-03T04:48:27.187Z,7.83
2019-04-03T04:50:55.639Z,7.85
2019-04-03T04:53:24.300Z,7.85
2019-04-03T04:55:52.602Z,7.84
2019-04-03T04:58:20.895Z,7.85
2019-04-03T05:00:51.673Z,7.84
2019-04-03T05:03:19.756Z,7.86
2019-04-03T05:05:49.228Z,7.87
2019-04-03T05:08:17.426Z,7.86
2019-04-03T05:10:48.642Z,7.89
2019-04-03T05:13:16.365Z,7.90
2019-04-03T05:15:44.832Z,7.94
2019-04-03T05:18:13.168Z,7.94
2019-04-03T05:20:41.326Z,7.96
2019-04-03T05:23:09.539Z,8.00
2019-04-03T05:25:37.753Z,8.03
2019-04-03T05:28:05.947Z,8.03
2019-04-03T05:30:36.819Z,8.01
2019-04-03T05:33:04.165Z,7.98
2019-04-03T05:35:32.374Z,7.98
2019-04-03T05:38:00.575Z,7.98
2019-04-03T05:40:28.951Z,8.01
2019-04-03T05:42:59.258Z,8.03
2019-04-03T05:45:27.233Z,8.06
2019-04-03T05:47:55.434Z,8.07
2019-04-03T05:50:25.720Z,8.10
2019-04-03T05:52:53.777Z,8.12
2019-04-03T05:55:21.978Z,8.13
2019-04-03T05:57:50.167Z,8.18
2019-04-03T06:00:18.422Z,8.22
2019-04-03T06:02:46.568Z,8.27
2019-04-03T06:05:14.888Z,8.30
2019-04-03T06:07:43.120Z,8.34
2019-04-03T06:10:11.595Z,8.34
2019-04-03T06:12:39.726Z,8.35
2019-04-03T06:15:09.796Z,8.36
2019-04-03T06:17:37.938Z,8.40
2019-04-03T06:20:06.499Z,8.45
2019-04-03T06:22:34.710Z,8.51
2019-04-03T06:25:03.379Z,8.53
2019-04-03T06:27:31.583Z,8.53
2019-04-03T06:29:59.785Z,8.56
2019-04-03T06:32:29.462Z,8.61
2019-04-03T06:34:57.993Z,8.68
2019-04-03T06:37:26.210Z,8.76
2019-04-03T06:39:54.416Z,8.80
2019-04-03T06:42:22.629Z,8.85
2019-04-03T06:44:52.791Z,8.91
2019-04-03T06:47:20.779Z,8.98
2019-04-03T06:49:48.980Z,9.07
2019-04-03T06:52:17.199Z,9.11
2019-04-03T06:54:45.412Z,9.12
2019-04-03T06:57:14.246Z,9.16
2019-04-03T06:59:42.859Z,9.20
2019-04-03T07:02:11.014Z,9.26
2019-04-03T07:04:39.222Z,9.31
2019-04-03T07:07:08.102Z,9.36
2019-04-03T07:09:37.239Z,9.38
2019-04-03T07:12:05.484Z,9.44
2019-04-03T07:14:33.707Z,9.50
2019-04-03T07:17:05.108Z,9.56
2019-04-03T07:19:32.177Z,9.68
2019-04-03T07:22:00.338Z,9.80
2019-04-03T07:24:30.063Z,9.90
2019-04-03T07:26:58.467Z,9.99
2019-04-03T07:29:26.688Z,10.07
2019-04-03T07:31:55.693Z,10.16
2019-04-03T07:34:24.173Z,10.23
2019-04-03T07:36:52.387Z,10.31
2019-04-03T07:39:20.605Z,10.38
2019-04-03T07:41:48.818Z,10.44
2019-04-03T07:44:17.046Z,10.49
2019-04-03T07:46:45.247Z,10.51
2019-04-03T07:49:14.273Z,10.56
2019-04-03T07:51:43.882Z,10.62
2019-04-03T07:54:12.703Z,10.69
2019-04-03T07:56:40.941Z,10.80
2019-04-03T07:59:09.148Z,10.89
2019-04-03T08:01:40.302Z,10.97
2019-04-03T08:04:07.295Z,11.03
2019-04-03T08:06:36.334Z,11.08
2019-04-03T08:09:09.311Z,11.12
2019-04-03T08:11:37.563Z,11.17
2019-04-03T08:14:06.754Z,11.24
2019-04-03T08:16:35.955Z,11.29
2019-04-03T08:19:04.174Z,11.36
2019-04-03T08:21:32.389Z,11.41
2019-04-03T08:24:00.846Z,11.43
2019-04-03T08:26:29.058Z,11.45
2019-04-03T08:28:57.332Z,11.48
2019-04-03T08:31:25.488Z,11.49
2019-04-03T08:33:53.712Z,11.50
2019-04-03T08:36:25.381Z,11.50
2019-04-03T08:38:52.005Z,11.58
2019-04-03T08:41:20.168Z,11.65
2019-04-03T08:43:49.948Z,11.70
2019-04-03T08:46:18.264Z,11.78
2019-04-03T08:48:46.443Z,11.80
2019-04-03T08:51:14.651Z,11.82
2019-04-03T08:53:42.872Z,11.82
2019-04-03T08:56:12.796Z,11.87
2019-04-03T08:58:41.024Z,11.96
2019-04-03T09:01:10.743Z,12.06
2019-04-03T09:03:39.329Z,12.19
2019-04-03T09:06:07.540Z,12.40
2019-04-03T09:08:35.764Z,12.55
2019-04-03T09:11:05.459Z,12.59
2019-04-03T09:13:33.676Z,12.65
2019-04-03T09:16:01.886Z,12.66
2019-04-03T09:18:30.949Z,12.67
2019-04-03T09:20:59.195Z,12.68
2019-04-03T09:23:27.413Z,12.67
2019-04-03T09:25:55.632Z,12.71
2019-04-03T09:28:23.859Z,12.74
2019-04-03T09:30:53.991Z,12.77
2019-04-03T09:33:24.653Z,12.72
2019-04-03T09:35:52.130Z,12.59
2019-04-03T09:38:20.607Z,12.49
2019-04-03T09:40:48.843Z,12.43
2019-04-03T09:43:17.115Z,12.45
2019-04-03T09:45:45.330Z,12.53
2019-04-03T09:48:14.202Z,12.64
2019-04-03T09:50:45.631Z,12.76
2019-04-03T09:53:12.613Z,12.82
2019-04-03T09:55:40.726Z,12.85
2019-04-03T09:58:09.341Z,12.84
2019-04-03T10:00:37.574Z,12.81
2019-04-03T10:03:06.064Z,12.73
2019-04-03T10:05:34.246Z,12.63
2019-04-03T10:08:02.592Z,12.55
2019-04-03T10:10:30.764Z,12.51
2019-04-03T10:12:58.988Z,12.44
2019-04-03T10:15:27.304Z,12.36
2019-04-03T10:17:55.558Z,12.25
2019-04-03T10:20:23.716Z,12.13
2019-04-03T10:22:51.922Z,12.01
2019-04-03T10:25:20.554Z,11.88
2019-04-03T10:27:48.922Z,11.70
2019-04-03T10:30:20.349Z,11.58
2019-04-03T10:32:48.946Z,11.49
2019-04-03T10:35:17.126Z,11.40
2019-04-03T10:37:46.634Z,11.35
2019-04-03T10:40:15.801Z,11.29
2019-04-03T10:42:44.013Z,11.24
2019-04-03T10:45:12.510Z,11.22
2019-04-03T10:47:43.594Z,11.22
2019-04-03T10:50:11.529Z,11.20
2019-04-03T10:52:39.738Z,11.17
2019-04-03T10:55:08.057Z,11.15
2019-04-03T10:57:37.611Z,11.19
2019-04-03T11:00:09.101Z,11.23
2019-04-03T11:02:37.668Z,11.24
2019-04-03T11:05:08.793Z,11.29
2019-04-03T11:07:37.008Z,11.35
2019-04-03T11:10:06.970Z,11.34
2019-04-03T11:12:35.525Z,11.38
2019-04-03T11:15:10.469Z,11.43
2019-04-03T11:17:37.577Z,11.52
2019-04-03T11:20:10.331Z,11.62
2019-04-03T11:22:41.544Z,11.61
2019-04-03T11:25:09.114Z,11.58
2019-04-03T11:27:43.689Z,11.48
2019-04-03T11:30:14.050Z,11.36
2019-04-03T11:32:42.156Z,11.24
2019-04-03T11:35:10.605Z,11.17
2019-04-03T11:37:38.804Z,11.07
2019-04-03T11:40:10.595Z,11.02
2019-04-03T11:42:39.007Z,11.03
2019-04-03T11:45:07.952Z,10.96
2019-04-03T11:47:36.177Z,10.90
2019-04-03T11:50:06.815Z,10.89
2019-04-03T11:52:35.242Z,10.86
2019-04-03T11:55:04.797Z,10.86
2019-04-03T11:57:33.070Z,10.88
2019-04-03T12:00:01.251Z,10.90
2019-04-03T12:02:29.766Z,10.89
2019-04-03T12:04:58.108Z,10.86
2019-04-03T12:07:26.339Z,10.83
2019-04-03T12:09:55.050Z,10.82
2019-04-03T12:12:23.844Z,10.78
2019-04-03T12:14:52.224Z,10.75
2019-04-03T12:17:20.654Z,10.71
2019-04-03T12:19:49.145Z,10.68
2019-04-03T12:22:17.856Z,10.65
2019-04-03T12:24:46.108Z,10.64
2019-04-03T12:27:14.836Z,10.63
2019-04-03T12:29:43.591Z,10.61
2019-04-03T12:32:12.065Z,10.58
2019-04-03T12:34:40.548Z,10.57
2019-04-03T12:37:09.360Z,10.59
2019-04-03T12:39:37.517Z,10.64
2019-04-03T12:42:08.307Z,10.66
2019-04-03T12:44:36.000Z,10.64
2019-04-03T12:47:05.632Z,10.61
2019-04-03T12:49:34.698Z,10.57
2019-04-03T12:52:04.127Z,10.54
2019-04-03T12:54:33.331Z,10.52
2019-04-03T12:57:02.243Z,10.53
2019-04-03T12:59:30.474Z,10.56
2019-04-03T13:01:59.330Z,10.61
2019-04-03T13:04:30.219Z,10.68
2019-04-03T13:06:57.722Z,10.68
2019-04-03T13:09:26.452Z,10.65
2019-04-03T13:11:55.100Z,10.61
2019-04-03T13:14:26.453Z,10.56
2019-04-03T13:16:53.639Z,10.56
2019-04-03T13:19:24.475Z,10.54
2019-04-03T13:21:52.431Z,10.54
2019-04-03T13:24:21.334Z,10.51
2019-04-03T13:26:50.321Z,10.47
2019-04-03T13:29:20.847Z,10.45
2019-04-03T13:31:48.914Z,10.44
2019-04-03T13:34:17.565Z,10.41
2019-04-03T13:36:45.823Z,10.36
2019-04-03T13:39:14.347Z,10.30
2019-04-03T13:41:43.354Z,10.27
2019-04-03T13:44:12.333Z,10.23
2019-04-03T13:46:40.916Z,10.21
2019-04-03T13:49:09.438Z,10.16
2019-04-03T13:51:37.919Z,10.12
2019-04-03T13:54:07.561Z,10.10
2019-04-03T13:56:36.206Z,10.10
2019-04-03T13:59:04.719Z,10.11
2019-04-03T14:01:32.911Z,10.13
2019-04-03T14:04:01.569Z,10.13
2019-04-03T14:06:29.857Z,10.12
2019-04-03T14:08:58.147Z,10.13
2019-04-03T14:11:26.685Z,10.11
2019-04-03T14:13:56.417Z,10.17
2019-04-03T14:16:24.621Z,10.24
2019-04-03T14:18:53.262Z,10.28
2019-04-03T14:21:21.432Z,10.30
2019-04-03T14:23:49.763Z,10.34
2019-04-03T14:26:18.285Z,10.35
2019-04-03T14:28:46.458Z,10.33
2019-04-03T14:31:16.689Z,10.32
2019-04-03T14:33:46.934Z,10.39
2019-04-03T14:36:18.370Z,10.47
2019-04-03T14:38:45.721Z,10.53
2019-04-03T14:41:13.985Z,10.56
2019-04-03T14:43:42.195Z,10.60
2019-04-03T14:46:10.690Z,10.65
2019-04-03T14:48:38.908Z,10.64
2019-04-03T14:51:09.417Z,10.66
2019-04-03T14:53:37.062Z,10.64
2019-04-03T14:56:05.271Z,10.59
2019-04-03T14:58:33.813Z,10.59
2019-04-03T15:01:02.227Z,10.63
2019-04-03T15:03:30.457Z,10.62
2019-04-03T15:05:58.663Z,10.58
2019-04-03T15:08:27.352Z,10.63
2019-04-03T15:10:55.711Z,10.74
2019-04-03T15:13:23.861Z,10.84
2019-04-03T15:15:52.068Z,10.93
2019-04-03T15:18:20.290Z,10.91
2019-04-03T15:20:49.375Z,10.97
2019-04-03T15:23:18.803Z,11.05
2019-04-03T15:25:48.378Z,11.19
2019-04-03T15:28:17.479Z,11.27
2019-04-03T15:30:45.802Z,11.27
2019-04-03T15:33:14.232Z,11.13
2019-04-03T15:35:42.725Z,10.99
2019-04-03T15:38:13.451Z,10.92
2019-04-03T15:40:41.216Z,10.85
2019-04-03T15:43:11.950Z,10.81
2019-04-03T15:45:39.992Z,10.74
2019-04-03T15:48:08.218Z,10.71
2019-04-03T15:50:38.443Z,10.68
2019-04-03T15:53:06.814Z,10.67
2019-04-03T15:55:37.941Z,10.60
2019-04-03T15:58:05.003Z,10.58
2019-04-03T16:00:34.875Z,10.58
2019-04-03T16:03:03.154Z,10.57
2019-04-03T16:05:33.858Z,10.55
2019-04-03T16:08:01.300Z,10.55
2019-04-03T16:10:29.661Z,10.53
2019-04-03T16:12:57.823Z,10.56
2019-04-03T16:15:26.027Z,10.58
2019-04-03T16:17:54.423Z,10.54
2019-04-03T16:20:23.300Z,10.54
2019-04-03T16:22:51.518Z,10.58
2019-04-03T16:25:20.081Z,10.56
2019-04-03T16:27:48.795Z,10.57
2019-04-03T16:30:18.655Z,10.55
2019-04-03T16:32:46.937Z,10.59
2019-04-03T16:35:15.288Z,10.61
2019-04-03T16:37:44.108Z,10.61
2019-04-03T16:40:12.615Z,10.56
2019-04-03T16:42:40.804Z,10.52
2019-04-03T16:45:09.887Z,10.52
2019-04-03T16:47:38.095Z,10.51
2019-04-03T16:50:08.608Z,10.49
2019-04-03T16:52:37.819Z,10.50
2019-04-03T16:55:07.226Z,10.50
2019-04-03T16:57:35.701Z,10.48
2019-04-03T17:00:07.587Z,10.49
2019-04-03T17:02:35.169Z,10.46
2019-04-03T17:05:03.644Z,10.47
2019-04-03T17:07:31.872Z,10.54
2019-04-03T17:10:00.073Z,10.60
2019-04-03T17:12:28.943Z,10.65
2019-04-03T17:14:57.229Z,10.62
2019-04-03T17:17:25.798Z,10.54
2019-04-03T17:19:54.040Z,10.51
2019-04-03T17:22:22.256Z,10.52
2019-04-03T17:24:55.731Z,10.49
2019-04-03T17:27:22.076Z,10.43
2019-04-03T17:29:50.501Z,10.39
2019-04-03T17:32:18.651Z,10.37
2019-04-03T17:34:46.867Z,10.32
2019-04-03T17:37:15.234Z,10.26
2019-04-03T17:39:43.476Z,10.20
2019-04-03T17:42:11.688Z,10.12
2019-04-03T17:44:39.914Z,10.04
2019-04-03T17:47:08.122Z,9.94
2019-04-03T17:49:36.398Z,9.87
2019-04-03T17:52:05.018Z,9.80
2019-04-03T17:54:34.056Z,9.75
2019-04-03T17:57:02.277Z,9.68
2019-04-03T17:59:30.486Z,9.63
2019-04-03T18:01:58.704Z,9.57
2019-04-03T18:04:27.369Z,9.55
2019-04-03T18:06:57.306Z,9.51
2019-04-03T18:09:25.515Z,9.44
2019-04-03T18:11:53.736Z,9.39
2019-04-03T18:14:21.939Z,9.33
2019-04-03T18:16:50.137Z,9.30
2019-04-03T18:19:18.519Z,9.27
2019-04-03T18:21:46.881Z,9.22
2019-04-03T18:24:16.656Z,9.21
2019-04-03T18:26:45.116Z,9.18
2019-04-03T18:29:13.253Z,9.16
2019-04-03T18:31:44.301Z,9.09
2019-04-03T18:34:11.381Z,9.07
2019-04-03T18:36:39.590Z,9.04
2019-04-03T18:39:09.729Z,8.99
2019-04-03T18:41:38.427Z,8.96
2019-04-03T18:44:06.635Z,8.93
2019-04-03T18:46:36.853Z,8.88
2019-04-03T18:49:04.781Z,8.80
2019-04-03T18:51:32.994Z,8.67
2019-04-03T18:54:01.210Z,8.59
2019-04-03T18:56:31.944Z,8.48
2019-04-03T18:58:59.344Z,8.39
2019-04-03T19:01:28.012Z,8.33
2019-04-03T19:03:56.240Z,8.27
2019-04-03T19:06:24.441Z,8.17
2019-04-03T19:08:52.667Z,8.12
2019-04-03T19:11:20.878Z,8.06
2019-04-03T19:13:50.713Z,8.00
2019-04-03T19:16:28.994Z,7.96
2019-04-03T19:18:49.245Z,7.92
2019-04-03T19:21:24.285Z,7.88
2019-04-03T19:23:49.839Z,7.83
2019-04-03T19:26:17.325Z,7.79
2019-04-03T19:28:45.534Z,7.75
2019-04-03T19:31:13.745Z,7.76
2019-04-03T19:33:44.736Z,7.75
2019-04-03T19:36:11.842Z,7.71
2019-04-03T19:38:41.317Z,7.67
2019-04-03T19:41:11.576Z,7.59
2019-04-03T19:43:39.423Z,7.52
2019-04-03T19:46:07.622Z,7.48
2019-04-03T19:48:35.819Z,7.43
2019-04-03T19:51:04.032Z,7.42
2019-04-03T19:53:32.229Z,7.39
2019-04-03T19:56:00.445Z,7.35
2019-04-03T19:58:29.611Z,7.34
2019-04-03T20:00:57.905Z,7.34
2019-04-03T20:03:26.345Z,7.31
2019-04-03T20:05:55.216Z,7.25
2019-04-03T20:08:23.516Z,7.25
2019-04-03T20:10:51.712Z,7.23
2019-04-03T20:13:19.914Z,7.18
2019-04-03T20:15:48.110Z,7.14
2019-04-03T20:18:16.315Z,7.08
2019-04-03T20:20:44.532Z,7.02
2019-04-03T20:23:12.730Z,6.93
2019-04-03T20:25:41.783Z,6.87
2019-04-03T20:28:10.233Z,6.81
2019-04-03T20:30:38.568Z,6.70
2019-04-03T20:33:06.773Z,6.64
2019-04-03T20:35:34.996Z,6.58
2019-04-03T20:38:03.196Z,6.62
2019-04-03T20:40:32.085Z,6.72
2019-04-03T20:43:01.430Z,6.72
2019-04-03T20:45:29.645Z,6.70
2019-04-03T20:47:57.994Z,6.64
2019-04-03T20:50:26.153Z,6.63
2019-04-03T20:52:56.988Z,6.62
2019-04-03T20:55:25.455Z,6.61
2019-04-03T20:57:55.725Z,6.55
2019-04-03T21:00:23.645Z,6.50
2019-04-03T21:02:51.938Z,6.45
2019-04-03T21:05:20.423Z,6.43
2019-04-03T21:07:48.916Z,6.37
2019-04-03T21:10:17.385Z,6.34
2019-04-03T21:12:45.864Z,6.38
2019-04-03T21:15:14.542Z,6.30
2019-04-03T21:17:42.826Z,6.20
2019-04-03T21:20:11.396Z,6.12
2019-04-03T21:22:39.795Z,6.08
2019-04-03T21:25:08.303Z,6.06
2019-04-03T21:27:39.652Z,6.10
2019-04-03T21:30:10.034Z,6.14
2019-04-03T21:32:38.332Z,6.14
2019-04-03T21:35:06.878Z,6.10
2019-04-03T21:37:35.305Z,6.02
2019-04-03T21:40:05.015Z,6.02
2019-04-03T21:42:33.869Z,6.00
2019-04-03T21:45:02.985Z,6.00
2019-04-03T21:47:32.312Z,5.94
2019-04-03T21:50:03.499Z,5.91
2019-04-03T21:52:30.778Z,5.95
2019-04-03T21:54:59.276Z,5.98
2019-04-03T21:57:27.744Z,6.03
2019-04-03T21:59:56.246Z,6.08
2019-04-03T22:02:24.705Z,6.12
2019-04-03T22:04:53.855Z,6.07
2019-04-03T22:07:22.674Z,6.00
2019-04-03T22:09:51.179Z,5.98
2019-04-03T22:12:19.390Z,5.96
2019-04-03T22:14:47.627Z,5.93
2019-04-03T22:17:16.121Z,5.93
2019-04-03T22:19:45.321Z,5.99
2019-04-03T22:22:13.697Z,5.97
2019-04-03T22:24:42.062Z,5.96
2019-04-03T22:27:11.737Z,5.94
2019-04-03T22:29:40.576Z,5.96
2019-04-03T22:32:09.046Z,5.99
2019-04-03T22:34:37.542Z,6.00
2019-04-03T22:37:05.747Z,6.06
2019-04-03T22:39:33.989Z,6.05
2019-04-03T22:42:02.455Z,6.03
2019-04-03T22:44:30.679Z,5.92
2019-04-03T22:46:58.908Z,5.94
2019-04-03T22:49:27.424Z,6.05
2019-04-03T22:51:55.880Z,6.12
2019-04-03T22:54:24.770Z,6.12
2019-04-03T22:56:53.350Z,6.19
2019-04-03T22:59:23.767Z,6.24
2019-04-03T23:01:51.855Z,6.29
2019-04-03T23:04:20.326Z,6.35
2019-04-03T23:06:49.706Z,6.39
2019-04-03T23:09:18.322Z,6.41
2019-04-03T23:11:46.813Z,6.48
2019-04-03T23:14:15.279Z,6.55
2019-04-03T23:16:45.602Z,6.60
2019-04-03T23:19:13.803Z,6.60
2019-04-03T23:21:42.015Z,6.57
2019-04-03T23:24:10.222Z,6.63
2019-04-03T23:26:38.721Z,6.64
2019-04-03T23:29:07.189Z,6.66
2019-04-03T23:31:35.680Z,6.73
2019-04-03T23:34:04.163Z,6.74
2019-04-03T23:36:32.574Z,6.79
2019-04-03T23:39:01.123Z,6.83
2019-04-03T23:41:29.617Z,6.88
2019-04-03T23:43:58.075Z,6.85
2019-04-03T23:46:26.291Z,6.85
2019-04-03T23:48:54.551Z,6.90
2019-04-03T23:51:23.866Z,6.91
2019-04-03T23:53:53.024Z,6.98
2019-04-03T23:56:21.530Z,7.04
2019-04-03T23:58:49.988Z,7.05
